createdAt,value
2023-04-14T00:02:10.218Z,3.63
2023-04-14T00:07:06.799Z,4.23
2023-04-14T00:11:59.887Z,4.93
2023-04-14T00:16:53.813Z,3.63
2023-04-14T00:27:03.212Z,4.77
2023-04-14T00:32:00.155Z,4.83
2023-04-14T00:36:56.974Z,4.27
2023-04-14T00:41:50.050Z,3.33
2023-04-14T00:46:44.434Z,5.27
2023-04-14T00:51:38.866Z,6.33
2023-04-14T00:56:32.086Z,3.07
2023-04-14T01:01:30.365Z,6.20
2023-04-14T01:12:00.702Z,4.67
2023-04-14T01:17:03.921Z,3.03
2023-04-14T01:22:11.173Z,4.37
2023-04-14T01:27:18.326Z,7.63
2023-04-14T01:32:16.157Z,4.73
2023-04-14T01:37:42.988Z,5.03
2023-04-14T01:42:38.922Z,3.13
2023-04-14T01:47:42.530Z,2.67
2023-04-14T01:52:38.380Z,4.60
2023-04-14T01:57:48.245Z,3.63
2023-04-14T02:02:44.712Z,4.50
2023-04-14T02:07:39.857Z,3.77
2023-04-14T02:12:32.260Z,2.93
2023-04-14T02:17:25.261Z,2.83
2023-04-14T02:22:17.458Z,2.80
2023-04-14T02:27:13.904Z,4.30
2023-04-14T02:32:11.502Z,3.03
2023-04-14T02:37:10.041Z,4.33
2023-04-14T02:42:12.868Z,3.40
2023-04-14T02:47:09.470Z,3.63
2023-04-14T02:52:09.747Z,6.33
2023-04-14T02:57:03.920Z,7.47
2023-04-14T03:02:03.380Z,4.50
2023-04-14T03:06:58.036Z,4.90
2023-04-14T03:11:51.233Z,4.47
2023-04-14T03:16:47.224Z,5.10
2023-04-14T03:21:39.678Z,5.03
2023-04-14T03:26:34.533Z,5.43
2023-04-14T03:31:34.327Z,6.47
2023-04-14T03:36:28.334Z,6.50
2023-04-14T03:41:26.221Z,7.00
2023-04-14T03:46:19.007Z,8.50
2023-04-14T03:51:14.102Z,7.63
2023-04-14T03:56:08.614Z,6.70
2023-04-14T04:01:03.870Z,5.47
2023-04-14T04:05:56.381Z,6.83
2023-04-14T04:10:49.365Z,5.87
2023-04-14T04:15:42.221Z,7.77
2023-04-14T04:20:40.786Z,6.03
2023-04-14T04:25:35.260Z,8.40
2023-04-14T04:30:39.553Z,10.53
2023-04-14T04:35:32.618Z,13.97
2023-04-14T04:40:24.681Z,8.73
2023-04-14T04:45:46.606Z,6.40
2023-04-14T04:50:38.864Z,5.47
2023-04-14T04:55:31.011Z,6.03
2023-04-14T05:00:23.160Z,6.87
2023-04-14T05:05:15.602Z,7.20
2023-04-14T05:16:57.822Z,9.10
2023-04-14T05:21:49.913Z,9.00
2023-04-14T05:26:51.961Z,7.50
2023-04-14T05:31:50.465Z,7.27
2023-04-14T05:36:42.547Z,7.37
2023-04-14T05:41:34.577Z,11.60
2023-04-14T05:46:26.617Z,7.57
2023-04-14T05:51:18.662Z,8.47
2023-04-14T05:56:11.770Z,10.73
2023-04-14T06:01:04.195Z,11.13
2023-04-14T06:05:56.240Z,9.33
2023-04-14T06:10:49.581Z,10.23
2023-04-14T06:15:41.636Z,10.40
2023-04-14T06:20:35.155Z,10.50
2023-04-14T06:25:27.213Z,8.63
2023-04-14T06:30:28.570Z,8.97
2023-04-14T06:35:32.343Z,8.50
2023-04-14T06:40:25.810Z,10.70
2023-04-14T06:45:18.023Z,8.50
2023-04-14T06:50:10.452Z,6.67
2023-04-14T06:55:02.477Z,6.60
2023-04-14T06:59:54.573Z,7.80
2023-04-14T07:04:46.772Z,5.37
2023-04-14T07:09:38.952Z,5.60
2023-04-14T07:14:32.699Z,5.43
2023-04-14T07:19:24.789Z,7.70
2023-04-14T07:24:16.918Z,4.80
2023-04-14T07:29:08.958Z,5.03
2023-04-14T07:34:01.773Z,4.57
2023-04-14T07:38:54.153Z,5.50
2023-04-14T07:43:46.566Z,13.30
2023-04-14T07:48:38.891Z,5.83
2023-04-14T07:53:32.259Z,5.10
2023-04-14T07:58:26.121Z,4.40
2023-04-14T08:03:19.540Z,3.07
2023-04-14T08:08:12.408Z,3.80
2023-04-14T08:13:06.053Z,4.63
2023-04-14T08:17:58.258Z,6.00
2023-04-14T08:22:50.397Z,5.77
2023-04-14T08:27:42.478Z,3.80
2023-04-14T08:32:34.534Z,5.53
2023-04-14T08:37:29.705Z,4.03
2023-04-14T08:42:22.158Z,3.50
2023-04-14T08:47:15.668Z,5.70
2023-04-14T08:52:12.067Z,6.67
2023-04-14T08:57:06.012Z,4.33
2023-04-14T09:01:58.850Z,6.00
2023-04-14T09:06:55.834Z,6.50
2023-04-14T09:11:48.625Z,2.90
2023-04-14T09:16:41.168Z,3.60
2023-04-14T09:21:53.453Z,3.10
2023-04-14T09:26:46.012Z,2.93
2023-04-14T09:31:39.691Z,4.20
2023-04-14T09:36:35.012Z,2.90
2023-04-14T09:41:28.167Z,3.80
2023-04-14T09:46:20.700Z,4.10
2023-04-14T09:51:14.103Z,3.73
2023-04-14T09:56:13.381Z,3.20
2023-04-14T10:01:11.517Z,2.30
2023-04-14T10:06:10.806Z,3.30
2023-04-14T10:11:15.584Z,2.70
2023-04-14T10:16:08.970Z,3.23
2023-04-14T10:21:02.206Z,4.20
2023-04-14T10:25:56.338Z,2.00
2023-04-14T10:30:50.421Z,3.47
2023-04-14T10:35:45.480Z,2.13
2023-04-14T10:40:47.804Z,4.10
2023-04-14T10:45:59.378Z,1.87
2023-04-14T10:50:59.045Z,1.60
2023-04-14T10:55:54.344Z,3.30
2023-04-14T11:00:46.850Z,1.60
2023-04-14T11:05:49.386Z,1.43
2023-04-14T11:10:47.092Z,3.37
2023-04-14T11:15:49.171Z,2.13
2023-04-14T11:20:44.521Z,1.37
2023-04-14T11:25:37.217Z,2.27
2023-04-14T11:30:29.893Z,2.10
2023-04-14T11:35:24.520Z,2.17
2023-04-14T11:40:18.048Z,2.20
2023-04-14T11:45:10.757Z,1.63
2023-04-14T11:50:05.473Z,1.93
2023-04-14T11:54:57.653Z,2.03
2023-04-14T11:59:50.858Z,1.90
2023-04-14T12:04:44.382Z,2.47
2023-04-14T12:09:40.247Z,2.20
2023-04-14T12:14:32.377Z,1.87
2023-04-14T12:19:24.439Z,2.93
2023-04-14T12:24:17.326Z,2.00
2023-04-14T12:29:12.398Z,2.10
2023-04-14T12:34:05.432Z,1.80
2023-04-14T12:38:57.465Z,1.90
2023-04-14T12:43:50.219Z,2.00
2023-04-14T12:48:47.028Z,2.20
2023-04-14T12:53:39.529Z,1.97
2023-04-14T12:58:32.210Z,2.70
2023-04-14T13:03:24.437Z,2.10
2023-04-14T13:08:16.744Z,2.00
2023-04-14T13:13:08.853Z,2.63
2023-04-14T13:18:00.917Z,2.03
2023-04-14T13:22:53.107Z,2.30
2023-04-14T13:27:45.111Z,3.63
2023-04-14T13:32:37.401Z,3.10
2023-04-14T13:37:29.438Z,3.17
2023-04-14T13:42:22.050Z,2.27
2023-04-14T13:47:14.134Z,3.40
2023-04-14T13:52:06.858Z,5.47
2023-04-14T13:56:59.009Z,2.20
2023-04-14T14:01:51.273Z,4.50
2023-04-14T14:06:43.538Z,4.07
2023-04-14T14:11:35.560Z,4.93
2023-04-14T14:21:23.225Z,1.63
2023-04-14T14:26:15.270Z,1.60
2023-04-14T14:31:07.543Z,1.80
2023-04-14T14:35:59.698Z,1.23
2023-04-14T14:40:52.067Z,2.13
2023-04-14T14:45:44.203Z,1.70
2023-04-14T14:50:38.964Z,1.70
2023-04-14T14:55:30.932Z,1.80
2023-04-14T15:00:23.709Z,1.70
2023-04-14T15:05:16.293Z,2.20
2023-04-14T15:10:08.845Z,2.10
2023-04-14T15:15:01.353Z,1.90
2023-04-14T15:19:53.522Z,2.00
2023-04-14T15:24:45.846Z,2.80
2023-04-14T15:29:38.363Z,2.50
2023-04-14T15:34:30.438Z,3.90
2023-04-14T15:39:22.569Z,5.47
2023-04-14T15:44:15.006Z,6.57
2023-04-14T15:49:07.006Z,3.93
2023-04-14T15:54:00.485Z,7.77
2023-04-14T15:58:52.671Z,4.40
2023-04-14T16:03:45.195Z,3.60
2023-04-14T16:08:37.340Z,5.90
2023-04-14T16:13:29.423Z,5.73
2023-04-14T16:18:21.774Z,4.10
2023-04-14T16:23:17.889Z,3.73
2023-04-14T16:28:11.264Z,4.07
2023-04-14T16:33:03.486Z,3.80
2023-04-14T16:37:56.943Z,4.80
2023-04-14T16:42:49.040Z,6.20
2023-04-14T16:47:41.267Z,4.80
2023-04-14T16:52:35.062Z,4.47
2023-04-14T16:57:27.263Z,4.33
2023-04-14T17:02:19.623Z,3.93
2023-04-14T17:07:12.620Z,4.40
2023-04-14T17:12:04.791Z,4.03
2023-04-14T17:16:56.956Z,3.90
2023-04-14T17:21:49.754Z,4.30
2023-04-14T17:26:42.087Z,3.60
2023-04-14T17:31:37.159Z,3.07
2023-04-14T17:36:30.216Z,4.20
2023-04-14T17:41:22.502Z,4.17
2023-04-14T17:46:16.586Z,5.80
2023-04-14T17:51:08.782Z,5.07
2023-04-14T17:56:01.441Z,5.73
2023-04-14T18:00:53.924Z,5.07
2023-04-14T18:05:47.148Z,6.60
2023-04-14T18:10:39.310Z,4.27
2023-04-14T18:15:32.763Z,5.60
2023-04-14T18:20:27.356Z,5.23
2023-04-14T18:25:20.370Z,5.77
2023-04-14T18:30:12.979Z,6.47
2023-04-14T18:35:05.432Z,7.03
2023-04-14T18:39:59.124Z,5.50
2023-04-14T18:44:53.112Z,6.00
2023-04-14T18:49:45.656Z,8.23
2023-04-14T18:54:37.661Z,6.17
2023-04-14T18:59:29.673Z,7.73
2023-04-14T19:04:21.743Z,5.10
2023-04-14T19:09:13.894Z,6.33
2023-04-14T19:14:08.756Z,4.77
2023-04-14T19:19:01.357Z,4.50
2023-04-14T19:23:56.611Z,5.10
2023-04-14T19:28:49.807Z,4.40
2023-04-14T19:33:41.931Z,3.73
2023-04-14T19:38:34.416Z,4.77
2023-04-14T19:43:26.483Z,5.87
2023-04-14T19:48:23.512Z,5.93
2023-04-14T19:53:18.355Z,5.03
2023-04-14T19:58:10.981Z,5.07
2023-04-14T20:03:03.342Z,4.10
2023-04-14T20:07:56.920Z,4.50
2023-04-14T20:12:49.305Z,4.53
2023-04-14T20:17:41.421Z,3.40
2023-04-14T20:22:34.277Z,3.00
2023-04-14T20:27:26.364Z,3.53
2023-04-14T20:32:19.655Z,3.27
2023-04-14T20:37:11.674Z,2.87
2023-04-14T20:42:04.030Z,3.57
2023-04-14T20:46:56.138Z,3.90
2023-04-14T20:51:48.951Z,2.87
2023-04-14T20:56:41.013Z,2.77
2023-04-14T21:01:33.091Z,2.90
2023-04-14T21:06:25.515Z,2.60
2023-04-14T21:11:19.007Z,2.80
2023-04-14T21:16:11.106Z,2.47
2023-04-14T21:21:04.898Z,2.50
2023-04-14T21:25:59.948Z,2.77
2023-04-14T21:30:54.620Z,2.43
2023-04-14T21:35:46.667Z,2.33
2023-04-14T21:40:39.394Z,2.20
2023-04-14T21:45:31.841Z,1.73
2023-04-14T21:50:24.047Z,1.90
2023-04-14T21:55:16.378Z,2.53
2023-04-14T22:00:13.291Z,2.30
2023-04-14T22:05:07.447Z,1.87
2023-04-14T22:10:01.086Z,2.00
2023-04-14T22:14:53.830Z,2.00
2023-04-14T22:19:46.249Z,2.87
2023-04-14T22:24:38.592Z,1.87
2023-04-14T22:29:30.647Z,1.70
2023-04-14T22:34:22.716Z,2.10
2023-04-14T22:39:17.462Z,3.93
2023-04-14T22:44:10.714Z,4.00
2023-04-14T22:49:03.077Z,3.47
2023-04-14T22:53:55.400Z,4.60
2023-04-14T22:58:47.678Z,5.60
2023-04-14T23:03:39.997Z,4.10
2023-04-14T23:08:32.450Z,3.33
2023-04-14T23:13:24.599Z,2.90
2023-04-14T23:18:16.729Z,2.50
2023-04-14T23:23:12.225Z,4.03
2023-04-14T23:28:05.792Z,3.37
2023-04-14T23:32:59.341Z,2.77
2023-04-14T23:37:52.155Z,2.17
2023-04-14T23:42:44.787Z,2.47
2023-04-14T23:47:36.981Z,3.20
2023-04-14T23:52:29.098Z,2.20
2023-04-14T23:57:21.559Z,2.37
